sensor_id;sensor_type;location;lat;lon;timestamp;P1;durP1;ratioP1;P2;durP2;ratioP2
18407;SDS011;9330;52.210;21.174;2023-05-10T00:01:01;6.47;;;4.57;;
18407;SDS011;9330;52.210;21.174;2023-05-10T00:03:30;6.53;;;4.30;;
18407;SDS011;9330;52.210;21.174;2023-05-10T00:05:57;5.82;;;4.38;;
18407;SDS011;9330;52.210;21.174;2023-05-10T00:08:24;6.78;;;4.90;;
18407;SDS011;9330;52.210;21.174;2023-05-10T00:10:51;6.95;;;4.35;;
18407;SDS011;9330;52.210;21.174;2023-05-10T00:13:18;5.85;;;4.07;;
18407;SDS011;9330;52.210;21.174;2023-05-10T00:15:45;8.13;;;4.80;;
18407;SDS011;9330;52.210;21.174;2023-05-10T00:18:12;8.07;;;4.43;;
18407;SDS011;9330;52.210;21.174;2023-05-10T00:20:40;7.28;;;5.03;;
18407;SDS011;9330;52.210;21.174;2023-05-10T00:23:07;5.85;;;4.80;;
18407;SDS011;9330;52.210;21.174;2023-05-10T00:25:34;6.45;;;4.40;;
18407;SDS011;9330;52.210;21.174;2023-05-10T00:28:00;5.90;;;4.57;;
18407;SDS011;9330;52.210;21.174;2023-05-10T00:30:27;6.30;;;4.18;;
18407;SDS011;9330;52.210;21.174;2023-05-10T00:32:54;5.15;;;3.80;;
18407;SDS011;9330;52.210;21.174;2023-05-10T00:35:21;7.03;;;4.38;;
18407;SDS011;9330;52.210;21.174;2023-05-10T00:37:49;8.32;;;4.75;;
18407;SDS011;9330;52.210;21.174;2023-05-10T00:40:16;6.82;;;4.70;;
18407;SDS011;9330;52.210;21.174;2023-05-10T00:42:43;10.35;;;4.60;;
18407;SDS011;9330;52.210;21.174;2023-05-10T00:45:10;6.85;;;4.10;;
18407;SDS011;9330;52.210;21.174;2023-05-10T00:47:37;6.78;;;4.28;;
18407;SDS011;9330;52.210;21.174;2023-05-10T00:50:04;7.07;;;4.43;;
18407;SDS011;9330;52.210;21.174;2023-05-10T00:52:32;6.55;;;3.90;;
18407;SDS011;9330;52.210;21.174;2023-05-10T00:55:00;7.63;;;4.20;;
18407;SDS011;9330;52.210;21.174;2023-05-10T00:57:28;6.10;;;4.22;;
18407;SDS011;9330;52.210;21.174;2023-05-10T00:59:55;5.65;;;3.88;;
18407;SDS011;9330;52.210;21.174;2023-05-10T01:02:23;5.45;;;4.05;;
18407;SDS011;9330;52.210;21.174;2023-05-10T01:04:50;7.65;;;4.22;;
18407;SDS011;9330;52.210;21.174;2023-05-10T01:07:17;5.40;;;4.10;;
18407;SDS011;9330;52.210;21.174;2023-05-10T01:09:44;6.00;;;3.88;;
18407;SDS011;9330;52.210;21.174;2023-05-10T01:12:13;5.28;;;3.63;;
18407;SDS011;9330;52.210;21.174;2023-05-10T01:14:40;5.90;;;4.35;;
18407;SDS011;9330;52.210;21.174;2023-05-10T01:17:07;6.82;;;4.13;;
18407;SDS011;9330;52.210;21.174;2023-05-10T01:19:36;6.32;;;4.20;;
18407;SDS011;9330;52.210;21.174;2023-05-10T01:22:05;6.63;;;4.47;;
18407;SDS011;9330;52.210;21.174;2023-05-10T01:24:42;5.97;;;4.20;;
18407;SDS011;9330;52.210;21.174;2023-05-10T01:27:47;6.45;;;4.63;;
18407;SDS011;9330;52.210;21.174;2023-05-10T01:30:35;6.18;;;4.18;;
18407;SDS011;9330;52.210;21.174;2023-05-10T01:33:24;7.90;;;4.50;;
18407;SDS011;9330;52.210;21.174;2023-05-10T01:35:55;6.60;;;4.03;;
18407;SDS011;9330;52.210;21.174;2023-05-10T01:38:28;6.68;;;3.75;;
18407;SDS011;9330;52.210;21.174;2023-05-10T01:41:07;6.10;;;3.90;;
18407;SDS011;9330;52.210;21.174;2023-05-10T01:43:41;6.30;;;3.83;;
18407;SDS011;9330;52.210;21.174;2023-05-10T01:46:16;6.60;;;4.30;;
18407;SDS011;9330;52.210;21.174;2023-05-10T01:48:52;5.72;;;3.67;;
18407;SDS011;9330;52.210;21.174;2023-05-10T01:51:23;5.32;;;3.88;;
18407;SDS011;9330;52.210;21.174;2023-05-10T01:53:54;4.57;;;3.58;;
18407;SDS011;9330;52.210;21.174;2023-05-10T01:56:25;3.92;;;3.47;;
18407;SDS011;9330;52.210;21.174;2023-05-10T01:58:54;4.53;;;3.50;;
18407;SDS011;9330;52.210;21.174;2023-05-10T02:01:22;6.03;;;3.67;;
18407;SDS011;9330;52.210;21.174;2023-05-10T02:03:52;7.22;;;3.92;;
18407;SDS011;9330;52.210;21.174;2023-05-10T02:06:21;6.00;;;3.65;;
18407;SDS011;9330;52.210;21.174;2023-05-10T02:08:50;5.40;;;3.40;;
18407;SDS011;9330;52.210;21.174;2023-05-10T02:11:18;6.80;;;4.00;;
18407;SDS011;9330;52.210;21.174;2023-05-10T02:13:47;6.63;;;4.00;;
18407;SDS011;9330;52.210;21.174;2023-05-10T02:16:15;4.78;;;3.63;;
18407;SDS011;9330;52.210;21.174;2023-05-10T02:18:44;8.25;;;4.18;;
18407;SDS011;9330;52.210;21.174;2023-05-10T02:21:13;7.05;;;4.35;;
18407;SDS011;9330;52.210;21.174;2023-05-10T02:23:41;4.88;;;3.67;;
18407;SDS011;9330;52.210;21.174;2023-05-10T02:26:09;9.40;;;5.20;;
18407;SDS011;9330;52.210;21.174;2023-05-10T02:28:38;7.70;;;4.25;;
18407;SDS011;9330;52.210;21.174;2023-05-10T02:31:07;6.82;;;5.32;;
18407;SDS011;9330;52.210;21.174;2023-05-10T02:33:36;5.53;;;4.07;;
18407;SDS011;9330;52.210;21.174;2023-05-10T02:36:05;7.22;;;4.47;;
18407;SDS011;9330;52.210;21.174;2023-05-10T02:38:36;6.13;;;4.30;;
18407;SDS011;9330;52.210;21.174;2023-05-10T02:41:05;7.03;;;4.55;;
18407;SDS011;9330;52.210;21.174;2023-05-10T02:43:33;6.38;;;4.00;;
18407;SDS011;9330;52.210;21.174;2023-05-10T02:46:01;6.10;;;3.95;;
18407;SDS011;9330;52.210;21.174;2023-05-10T02:48:28;8.05;;;4.50;;
18407;SDS011;9330;52.210;21.174;2023-05-10T02:50:56;7.25;;;5.50;;
18407;SDS011;9330;52.210;21.174;2023-05-10T02:53:30;7.13;;;5.13;;
18407;SDS011;9330;52.210;21.174;2023-05-10T02:56:00;7.40;;;5.65;;
18407;SDS011;9330;52.210;21.174;2023-05-10T02:58:32;8.75;;;5.90;;
18407;SDS011;9330;52.210;21.174;2023-05-10T03:00:59;8.75;;;6.90;;
18407;SDS011;9330;52.210;21.174;2023-05-10T03:03:26;7.88;;;4.90;;
18407;SDS011;9330;52.210;21.174;2023-05-10T03:05:53;4.88;;;4.15;;
18407;SDS011;9330;52.210;21.174;2023-05-10T03:08:21;6.38;;;4.20;;
18407;SDS011;9330;52.210;21.174;2023-05-10T03:10:51;5.18;;;4.43;;
18407;SDS011;9330;52.210;21.174;2023-05-10T03:13:28;7.50;;;4.60;;
18407;SDS011;9330;52.210;21.174;2023-05-10T03:16:03;5.93;;;3.78;;
18407;SDS011;9330;52.210;21.174;2023-05-10T03:18:37;7.80;;;4.60;;
18407;SDS011;9330;52.210;21.174;2023-05-10T03:21:10;6.22;;;4.20;;
18407;SDS011;9330;52.210;21.174;2023-05-10T03:23:40;6.40;;;4.03;;
18407;SDS011;9330;52.210;21.174;2023-05-10T03:26:09;7.75;;;5.00;;
18407;SDS011;9330;52.210;21.174;2023-05-10T03:28:41;9.43;;;5.90;;
18407;SDS011;9330;52.210;21.174;2023-05-10T03:31:08;6.82;;;4.45;;
18407;SDS011;9330;52.210;21.174;2023-05-10T03:33:35;7.90;;;6.43;;
18407;SDS011;9330;52.210;21.174;2023-05-10T03:36:11;7.93;;;5.35;;
18407;SDS011;9330;52.210;21.174;2023-05-10T03:38:38;8.23;;;4.50;;
18407;SDS011;9330;52.210;21.174;2023-05-10T03:41:05;12.68;;;6.47;;
18407;SDS011;9330;52.210;21.174;2023-05-10T03:43:32;7.75;;;5.28;;
18407;SDS011;9330;52.210;21.174;2023-05-10T03:46:02;9.23;;;5.07;;
18407;SDS011;9330;52.210;21.174;2023-05-10T03:48:29;8.40;;;4.95;;
18407;SDS011;9330;52.210;21.174;2023-05-10T03:50:56;7.43;;;4.68;;
18407;SDS011;9330;52.210;21.174;2023-05-10T03:53:23;6.30;;;4.95;;
18407;SDS011;9330;52.210;21.174;2023-05-10T03:55:50;6.70;;;4.65;;
18407;SDS011;9330;52.210;21.174;2023-05-10T03:58:17;5.70;;;3.80;;
18407;SDS011;9330;52.210;21.174;2023-05-10T04:00:44;6.63;;;3.85;;
18407;SDS011;9330;52.210;21.174;2023-05-10T04:03:12;7.18;;;4.53;;
18407;SDS011;9330;52.210;21.174;2023-05-10T04:05:39;6.22;;;4.05;;
18407;SDS011;9330;52.210;21.174;2023-05-10T04:08:06;5.30;;;3.78;;
18407;SDS011;9330;52.210;21.174;2023-05-10T04:10:33;4.90;;;4.03;;
18407;SDS011;9330;52.210;21.174;2023-05-10T04:13:00;8.15;;;4.75;;
18407;SDS011;9330;52.210;21.174;2023-05-10T04:15:27;6.80;;;3.58;;
18407;SDS011;9330;52.210;21.174;2023-05-10T04:17:54;4.70;;;3.88;;
18407;SDS011;9330;52.210;21.174;2023-05-10T04:20:22;6.38;;;3.72;;
18407;SDS011;9330;52.210;21.174;2023-05-10T04:22:49;5.88;;;3.67;;
18407;SDS011;9330;52.210;21.174;2023-05-10T04:25:16;5.85;;;3.97;;
18407;SDS011;9330;52.210;21.174;2023-05-10T04:27:43;5.28;;;3.72;;
18407;SDS011;9330;52.210;21.174;2023-05-10T04:30:10;9.85;;;4.00;;
18407;SDS011;9330;52.210;21.174;2023-05-10T04:32:37;6.88;;;3.65;;
18407;SDS011;9330;52.210;21.174;2023-05-10T04:35:04;6.90;;;3.78;;
18407;SDS011;9330;52.210;21.174;2023-05-10T04:37:33;5.20;;;3.70;;
18407;SDS011;9330;52.210;21.174;2023-05-10T04:40:00;6.68;;;3.53;;
18407;SDS011;9330;52.210;21.174;2023-05-10T04:42:28;6.95;;;3.80;;
18407;SDS011;9330;52.210;21.174;2023-05-10T04:44:55;7.28;;;3.53;;
18407;SDS011;9330;52.210;21.174;2023-05-10T04:47:22;3.95;;;3.30;;
18407;SDS011;9330;52.210;21.174;2023-05-10T04:49:48;5.95;;;3.58;;
18407;SDS011;9330;52.210;21.174;2023-05-10T04:52:15;6.68;;;3.38;;
18407;SDS011;9330;52.210;21.174;2023-05-10T04:54:44;5.22;;;3.10;;
18407;SDS011;9330;52.210;21.174;2023-05-10T04:57:11;5.78;;;3.85;;
18407;SDS011;9330;52.210;21.174;2023-05-10T04:59:37;6.97;;;3.65;;
18407;SDS011;9330;52.210;21.174;2023-05-10T05:02:04;5.78;;;3.92;;
18407;SDS011;9330;52.210;21.174;2023-05-10T05:04:31;6.60;;;3.38;;
18407;SDS011;9330;52.210;21.174;2023-05-10T05:06:58;4.80;;;3.47;;
18407;SDS011;9330;52.210;21.174;2023-05-10T05:09:25;6.30;;;3.28;;
18407;SDS011;9330;52.210;21.174;2023-05-10T05:11:53;7.43;;;3.58;;
18407;SDS011;9330;52.210;21.174;2023-05-10T05:14:20;3.58;;;2.92;;
18407;SDS011;9330;52.210;21.174;2023-05-10T05:16:47;6.70;;;3.22;;
18407;SDS011;9330;52.210;21.174;2023-05-10T05:19:14;3.42;;;3.03;;
18407;SDS011;9330;52.210;21.174;2023-05-10T05:21:41;6.50;;;3.30;;
18407;SDS011;9330;52.210;21.174;2023-05-10T05:24:08;4.93;;;3.30;;
18407;SDS011;9330;52.210;21.174;2023-05-10T05:26:36;4.40;;;3.40;;
18407;SDS011;9330;52.210;21.174;2023-05-10T05:29:04;6.55;;;3.05;;
18407;SDS011;9330;52.210;21.174;2023-05-10T05:31:31;5.90;;;3.40;;
18407;SDS011;9330;52.210;21.174;2023-05-10T05:33:58;4.00;;;2.80;;
18407;SDS011;9330;52.210;21.174;2023-05-10T05:36:25;5.50;;;2.83;;
18407;SDS011;9330;52.210;21.174;2023-05-10T05:38:51;5.25;;;3.17;;
18407;SDS011;9330;52.210;21.174;2023-05-10T05:41:18;5.47;;;3.30;;
18407;SDS011;9330;52.210;21.174;2023-05-10T05:43:46;5.97;;;3.25;;
18407;SDS011;9330;52.210;21.174;2023-05-10T05:46:14;4.53;;;2.92;;
18407;SDS011;9330;52.210;21.174;2023-05-10T05:48:41;6.57;;;3.20;;
18407;SDS011;9330;52.210;21.174;2023-05-10T05:51:08;5.97;;;3.08;;
18407;SDS011;9330;52.210;21.174;2023-05-10T05:53:35;4.60;;;3.00;;
18407;SDS011;9330;52.210;21.174;2023-05-10T05:56:02;4.10;;;2.60;;
18407;SDS011;9330;52.210;21.174;2023-05-10T05:58:29;6.15;;;2.88;;
18407;SDS011;9330;52.210;21.174;2023-05-10T06:00:56;4.78;;;2.90;;
18407;SDS011;9330;52.210;21.174;2023-05-10T06:03:25;5.10;;;2.72;;
18407;SDS011;9330;52.210;21.174;2023-05-10T06:05:52;4.57;;;2.85;;
18407;SDS011;9330;52.210;21.174;2023-05-10T06:08:19;4.68;;;2.63;;
18407;SDS011;9330;52.210;21.174;2023-05-10T06:10:46;4.30;;;2.70;;
18407;SDS011;9330;52.210;21.174;2023-05-10T06:13:13;6.57;;;2.67;;
18407;SDS011;9330;52.210;21.174;2023-05-10T06:15:40;3.30;;;2.30;;
18407;SDS011;9330;52.210;21.174;2023-05-10T06:18:07;5.38;;;2.40;;
18407;SDS011;9330;52.210;21.174;2023-05-10T06:20:35;4.07;;;2.60;;
18407;SDS011;9330;52.210;21.174;2023-05-10T06:23:02;6.10;;;2.60;;
18407;SDS011;9330;52.210;21.174;2023-05-10T06:25:29;2.60;;;2.08;;
18407;SDS011;9330;52.210;21.174;2023-05-10T06:27:56;4.13;;;2.50;;
18407;SDS011;9330;52.210;21.174;2023-05-10T06:30:23;3.13;;;2.15;;
18407;SDS011;9330;52.210;21.174;2023-05-10T06:32:53;4.00;;;2.60;;
18407;SDS011;9330;52.210;21.174;2023-05-10T06:35:20;3.47;;;2.30;;
18407;SDS011;9330;52.210;21.174;2023-05-10T06:37:49;3.22;;;2.03;;
18407;SDS011;9330;52.210;21.174;2023-05-10T06:40:16;4.25;;;2.65;;
18407;SDS011;9330;52.210;21.174;2023-05-10T06:42:43;4.20;;;2.42;;
18407;SDS011;9330;52.210;21.174;2023-05-10T06:45:11;3.08;;;2.35;;
18407;SDS011;9330;52.210;21.174;2023-05-10T06:47:39;3.03;;;2.03;;
18407;SDS011;9330;52.210;21.174;2023-05-10T06:50:06;3.58;;;2.30;;
18407;SDS011;9330;52.210;21.174;2023-05-10T06:52:34;5.20;;;2.13;;
18407;SDS011;9330;52.210;21.174;2023-05-10T06:55:02;4.47;;;2.00;;
18407;SDS011;9330;52.210;21.174;2023-05-10T06:57:30;5.97;;;2.20;;
18407;SDS011;9330;52.210;21.174;2023-05-10T06:59:57;5.47;;;2.22;;
18407;SDS011;9330;52.210;21.174;2023-05-10T07:02:24;5.85;;;2.08;;
18407;SDS011;9330;52.210;21.174;2023-05-10T07:04:51;5.47;;;2.35;;
18407;SDS011;9330;52.210;21.174;2023-05-10T07:07:19;5.45;;;2.53;;
18407;SDS011;9330;52.210;21.174;2023-05-10T07:09:45;2.30;;;2.10;;
18407;SDS011;9330;52.210;21.174;2023-05-10T07:12:14;3.58;;;2.00;;
18407;SDS011;9330;52.210;21.174;2023-05-10T07:14:41;3.80;;;2.00;;
18407;SDS011;9330;52.210;21.174;2023-05-10T07:17:08;1.92;;;1.50;;
18407;SDS011;9330;52.210;21.174;2023-05-10T07:19:34;6.03;;;2.05;;
18407;SDS011;9330;52.210;21.174;2023-05-10T07:22:01;2.78;;;1.88;;
18407;SDS011;9330;52.210;21.174;2023-05-10T07:24:28;5.22;;;2.00;;
18407;SDS011;9330;52.210;21.174;2023-05-10T07:26:56;3.45;;;2.13;;
18407;SDS011;9330;52.210;21.174;2023-05-10T07:29:24;3.42;;;1.88;;
18407;SDS011;9330;52.210;21.174;2023-05-10T07:31:51;2.50;;;1.77;;
18407;SDS011;9330;52.210;21.174;2023-05-10T07:34:18;3.00;;;1.90;;
18407;SDS011;9330;52.210;21.174;2023-05-10T07:36:45;3.67;;;1.83;;
18407;SDS011;9330;52.210;21.174;2023-05-10T07:39:12;5.22;;;2.03;;
18407;SDS011;9330;52.210;21.174;2023-05-10T07:41:39;2.97;;;1.65;;
18407;SDS011;9330;52.210;21.174;2023-05-10T07:44:08;3.75;;;1.58;;
18407;SDS011;9330;52.210;21.174;2023-05-10T07:46:36;3.42;;;1.70;;
18407;SDS011;9330;52.210;21.174;2023-05-10T07:49:03;2.35;;;1.60;;
18407;SDS011;9330;52.210;21.174;2023-05-10T07:51:30;4.78;;;1.85;;
18407;SDS011;9330;52.210;21.174;2023-05-10T07:53:57;2.42;;;1.73;;
18407;SDS011;9330;52.210;21.174;2023-05-10T07:56:24;2.40;;;1.42;;
18407;SDS011;9330;52.210;21.174;2023-05-10T07:58:54;3.47;;;2.00;;
18407;SDS011;9330;52.210;21.174;2023-05-10T08:01:21;5.95;;;2.05;;
18407;SDS011;9330;52.210;21.174;2023-05-10T08:03:50;3.05;;;1.80;;
18407;SDS011;9330;52.210;21.174;2023-05-10T08:06:18;3.35;;;1.73;;
18407;SDS011;9330;52.210;21.174;2023-05-10T08:08:46;2.05;;;1.52;;
18407;SDS011;9330;52.210;21.174;2023-05-10T08:11:14;1.42;;;1.25;;
18407;SDS011;9330;52.210;21.174;2023-05-10T08:13:41;5.72;;;1.60;;
18407;SDS011;9330;52.210;21.174;2023-05-10T08:16:08;5.60;;;1.73;;
18407;SDS011;9330;52.210;21.174;2023-05-10T08:18:35;4.57;;;1.90;;
18407;SDS011;9330;52.210;21.174;2023-05-10T08:21:03;1.70;;;1.60;;
18407;SDS011;9330;52.210;21.174;2023-05-10T08:23:30;5.15;;;1.95;;
18407;SDS011;9330;52.210;21.174;2023-05-10T08:25:57;3.40;;;1.50;;
18407;SDS011;9330;52.210;21.174;2023-05-10T08:28:24;2.42;;;1.83;;
18407;SDS011;9330;52.210;21.174;2023-05-10T08:30:52;2.95;;;1.77;;
18407;SDS011;9330;52.210;21.174;2023-05-10T08:33:18;2.28;;;1.40;;
18407;SDS011;9330;52.210;21.174;2023-05-10T08:35:45;2.25;;;1.60;;
18407;SDS011;9330;52.210;21.174;2023-05-10T08:38:14;6.18;;;2.17;;
18407;SDS011;9330;52.210;21.174;2023-05-10T08:40:41;1.95;;;1.60;;
18407;SDS011;9330;52.210;21.174;2023-05-10T08:43:09;2.15;;;1.48;;
18407;SDS011;9330;52.210;21.174;2023-05-10T08:45:38;5.93;;;1.80;;
18407;SDS011;9330;52.210;21.174;2023-05-10T08:48:08;3.35;;;1.70;;
18407;SDS011;9330;52.210;21.174;2023-05-10T08:50:37;3.17;;;1.92;;
18407;SDS011;9330;52.210;21.174;2023-05-10T08:53:05;6.82;;;1.80;;
18407;SDS011;9330;52.210;21.174;2023-05-10T08:55:36;3.63;;;1.73;;
18407;SDS011;9330;52.210;21.174;2023-05-10T08:58:05;3.15;;;1.77;;
18407;SDS011;9330;52.210;21.174;2023-05-10T09:00:32;2.38;;;1.70;;
18407;SDS011;9330;52.210;21.174;2023-05-10T09:02:59;3.67;;;1.92;;
18407;SDS011;9330;52.210;21.174;2023-05-10T09:05:26;2.08;;;1.70;;
18407;SDS011;9330;52.210;21.174;2023-05-10T09:07:53;3.70;;;1.83;;
18407;SDS011;9330;52.210;21.174;2023-05-10T09:10:20;5.47;;;1.95;;
18407;SDS011;9330;52.210;21.174;2023-05-10T09:12:52;2.35;;;1.75;;
18407;SDS011;9330;52.210;21.174;2023-05-10T09:15:20;4.00;;;1.73;;
18407;SDS011;9330;52.210;21.174;2023-05-10T09:17:47;2.30;;;1.63;;
18407;SDS011;9330;52.210;21.174;2023-05-10T09:20:15;2.75;;;1.88;;
18407;SDS011;9330;52.210;21.174;2023-05-10T09:22:43;4.00;;;1.90;;
18407;SDS011;9330;52.210;21.174;2023-05-10T09:25:11;5.68;;;1.92;;
18407;SDS011;9330;52.210;21.174;2023-05-10T09:27:39;2.58;;;1.73;;
18407;SDS011;9330;52.210;21.174;2023-05-10T09:30:09;3.15;;;1.70;;
18407;SDS011;9330;52.210;21.174;2023-05-10T09:32:37;2.92;;;1.95;;
18407;SDS011;9330;52.210;21.174;2023-05-10T09:35:08;2.40;;;1.73;;
18407;SDS011;9330;52.210;21.174;2023-05-10T09:37:36;3.20;;;1.80;;
18407;SDS011;9330;52.210;21.174;2023-05-10T09:40:07;3.15;;;1.80;;
18407;SDS011;9330;52.210;21.174;2023-05-10T09:42:37;2.83;;;1.35;;
18407;SDS011;9330;52.210;21.174;2023-05-10T09:45:04;3.33;;;1.77;;
18407;SDS011;9330;52.210;21.174;2023-05-10T09:47:34;2.35;;;2.00;;
18407;SDS011;9330;52.210;21.174;2023-05-10T09:50:02;4.28;;;1.77;;
18407;SDS011;9330;52.210;21.174;2023-05-10T09:52:29;3.42;;;1.55;;
18407;SDS011;9330;52.210;21.174;2023-05-10T09:54:57;3.33;;;1.77;;
18407;SDS011;9330;52.210;21.174;2023-05-10T09:57:24;2.40;;;1.48;;
18407;SDS011;9330;52.210;21.174;2023-05-10T09:59:51;3.55;;;1.80;;
18407;SDS011;9330;52.210;21.174;2023-05-10T10:02:19;3.28;;;2.10;;
18407;SDS011;9330;52.210;21.174;2023-05-10T10:04:50;6.95;;;1.85;;
18407;SDS011;9330;52.210;21.174;2023-05-10T10:07:21;2.28;;;1.77;;
18407;SDS011;9330;52.210;21.174;2023-05-10T10:09:49;4.75;;;1.75;;
18407;SDS011;9330;52.210;21.174;2023-05-10T10:12:16;5.65;;;2.03;;
18407;SDS011;9330;52.210;21.174;2023-05-10T10:14:44;2.13;;;1.60;;
18407;SDS011;9330;52.210;21.174;2023-05-10T10:17:12;3.15;;;1.90;;
18407;SDS011;9330;52.210;21.174;2023-05-10T10:19:39;4.45;;;1.83;;
18407;SDS011;9330;52.210;21.174;2023-05-10T10:22:08;2.55;;;1.63;;
18407;SDS011;9330;52.210;21.174;2023-05-10T10:24:37;1.55;;;1.40;;
18407;SDS011;9330;52.210;21.174;2023-05-10T10:27:07;5.97;;;1.80;;
18407;SDS011;9330;52.210;21.174;2023-05-10T10:29:44;3.28;;;1.85;;
18407;SDS011;9330;52.210;21.174;2023-05-10T10:32:20;6.20;;;2.15;;
18407;SDS011;9330;52.210;21.174;2023-05-10T10:34:54;6.35;;;1.60;;
18407;SDS011;9330;52.210;21.174;2023-05-10T10:37:23;3.88;;;1.73;;
18407;SDS011;9330;52.210;21.174;2023-05-10T10:40:25;1.90;;;1.50;;
18407;SDS011;9330;52.210;21.174;2023-05-10T10:42:53;4.45;;;1.60;;
18407;SDS011;9330;52.210;21.174;2023-05-10T10:45:20;4.65;;;1.98;;
18407;SDS011;9330;52.210;21.174;2023-05-10T10:47:48;2.88;;;1.60;;
18407;SDS011;9330;52.210;21.174;2023-05-10T10:50:19;5.10;;;1.60;;
18407;SDS011;9330;52.210;21.174;2023-05-10T10:52:47;6.38;;;2.00;;
18407;SDS011;9330;52.210;21.174;2023-05-10T10:55:17;2.67;;;1.80;;
18407;SDS011;9330;52.210;21.174;2023-05-10T10:57:47;2.00;;;1.52;;
18407;SDS011;9330;52.210;21.174;2023-05-10T11:00:22;3.65;;;1.63;;
18407;SDS011;9330;52.210;21.174;2023-05-10T11:02:51;5.85;;;2.15;;
18407;SDS011;9330;52.210;21.174;2023-05-10T11:05:23;3.85;;;1.90;;
18407;SDS011;9330;52.210;21.174;2023-05-10T11:08:13;4.35;;;1.92;;
18407;SDS011;9330;52.210;21.174;2023-05-10T11:11:01;2.83;;;1.80;;
18407;SDS011;9330;52.210;21.174;2023-05-10T11:13:33;4.10;;;1.83;;
18407;SDS011;9330;52.210;21.174;2023-05-10T11:16:11;5.03;;;1.90;;
18407;SDS011;9330;52.210;21.174;2023-05-10T11:18:52;3.40;;;2.20;;
18407;SDS011;9330;52.210;21.174;2023-05-10T11:21:24;4.95;;;1.83;;
18407;SDS011;9330;52.210;21.174;2023-05-10T11:23:54;3.35;;;1.77;;
18407;SDS011;9330;52.210;21.174;2023-05-10T11:26:22;4.53;;;2.03;;
18407;SDS011;9330;52.210;21.174;2023-05-10T11:28:51;2.63;;;2.00;;
18407;SDS011;9330;52.210;21.174;2023-05-10T11:31:20;3.65;;;1.60;;
18407;SDS011;9330;52.210;21.174;2023-05-10T11:33:48;5.82;;;2.00;;
18407;SDS011;9330;52.210;21.174;2023-05-10T11:36:17;5.03;;;2.00;;
18407;SDS011;9330;52.210;21.174;2023-05-10T11:38:45;6.70;;;1.90;;
18407;SDS011;9330;52.210;21.174;2023-05-10T11:41:15;5.22;;;2.03;;
18407;SDS011;9330;52.210;21.174;2023-05-10T11:43:43;4.43;;;2.00;;
18407;SDS011;9330;52.210;21.174;2023-05-10T11:46:14;2.38;;;1.63;;
18407;SDS011;9330;52.210;21.174;2023-05-10T11:48:42;2.75;;;1.60;;
18407;SDS011;9330;52.210;21.174;2023-05-10T11:51:09;2.05;;;1.63;;
18407;SDS011;9330;52.210;21.174;2023-05-10T11:53:37;2.00;;;1.67;;
18407;SDS011;9330;52.210;21.174;2023-05-10T11:56:04;4.82;;;2.40;;
18407;SDS011;9330;52.210;21.174;2023-05-10T11:58:33;3.72;;;1.98;;
18407;SDS011;9330;52.210;21.174;2023-05-10T12:01:01;3.15;;;1.80;;
18407;SDS011;9330;52.210;21.174;2023-05-10T12:03:29;3.90;;;2.08;;
18407;SDS011;9330;52.210;21.174;2023-05-10T12:05:57;5.70;;;2.00;;
18407;SDS011;9330;52.210;21.174;2023-05-10T12:08:25;4.35;;;1.85;;
18407;SDS011;9330;52.210;21.174;2023-05-10T12:10:53;3.30;;;1.90;;
18407;SDS011;9330;52.210;21.174;2023-05-10T12:13:30;3.47;;;1.98;;
18407;SDS011;9330;52.210;21.174;2023-05-10T12:15:59;4.20;;;1.90;;
18407;SDS011;9330;52.210;21.174;2023-05-10T12:18:38;6.40;;;1.77;;
18407;SDS011;9330;52.210;21.174;2023-05-10T12:21:06;3.85;;;1.77;;
18407;SDS011;9330;52.210;21.174;2023-05-10T12:23:33;4.65;;;2.08;;
18407;SDS011;9330;52.210;21.174;2023-05-10T12:26:01;4.13;;;1.60;;
18407;SDS011;9330;52.210;21.174;2023-05-10T12:28:29;5.22;;;1.80;;
18407;SDS011;9330;52.210;21.174;2023-05-10T12:30:58;4.80;;;1.88;;
18407;SDS011;9330;52.210;21.174;2023-05-10T12:33:26;3.20;;;1.75;;
18407;SDS011;9330;52.210;21.174;2023-05-10T12:35:53;3.15;;;1.60;;
18407;SDS011;9330;52.210;21.174;2023-05-10T12:38:28;2.40;;;1.52;;
18407;SDS011;9330;52.210;21.174;2023-05-10T12:40:56;3.95;;;1.60;;
18407;SDS011;9330;52.210;21.174;2023-05-10T12:43:24;3.20;;;2.05;;
18407;SDS011;9330;52.210;21.174;2023-05-10T12:45:51;3.20;;;2.00;;
18407;SDS011;9330;52.210;21.174;2023-05-10T12:48:19;2.47;;;1.80;;
18407;SDS011;9330;52.210;21.174;2023-05-10T12:50:46;3.72;;;1.80;;
18407;SDS011;9330;52.210;21.174;2023-05-10T12:53:14;3.80;;;2.00;;
18407;SDS011;9330;52.210;21.174;2023-05-10T12:55:41;4.18;;;2.08;;
18407;SDS011;9330;52.210;21.174;2023-05-10T12:58:09;4.32;;;1.73;;
18407;SDS011;9330;52.210;21.174;2023-05-10T13:00:35;3.17;;;1.67;;
18407;SDS011;9330;52.210;21.174;2023-05-10T13:03:03;1.98;;;1.70;;
18407;SDS011;9330;52.210;21.174;2023-05-10T13:05:32;2.30;;;1.77;;
18407;SDS011;9330;52.210;21.174;2023-05-10T13:07:59;2.38;;;1.80;;
18407;SDS011;9330;52.210;21.174;2023-05-10T13:10:27;4.30;;;2.00;;
18407;SDS011;9330;52.210;21.174;2023-05-10T13:12:55;5.60;;;2.22;;
18407;SDS011;9330;52.210;21.174;2023-05-10T13:15:22;3.45;;;2.00;;
18407;SDS011;9330;52.210;21.174;2023-05-10T13:17:49;5.55;;;2.15;;
18407;SDS011;9330;52.210;21.174;2023-05-10T13:20:16;2.85;;;1.90;;
18407;SDS011;9330;52.210;21.174;2023-05-10T13:22:44;2.92;;;1.70;;
18407;SDS011;9330;52.210;21.174;2023-05-10T13:25:11;6.60;;;1.70;;
18407;SDS011;9330;52.210;21.174;2023-05-10T13:27:39;4.22;;;1.73;;
18407;SDS011;9330;52.210;21.174;2023-05-10T13:30:07;3.05;;;1.60;;
18407;SDS011;9330;52.210;21.174;2023-05-10T13:32:36;3.63;;;1.90;;
18407;SDS011;9330;52.210;21.174;2023-05-10T13:35:03;2.30;;;1.67;;
18407;SDS011;9330;52.210;21.174;2023-05-10T13:37:31;3.45;;;1.23;;
18407;SDS011;9330;52.210;21.174;2023-05-10T13:40:05;5.10;;;1.88;;
18407;SDS011;9330;52.210;21.174;2023-05-10T13:42:32;3.38;;;1.70;;
18407;SDS011;9330;52.210;21.174;2023-05-10T13:44:59;6.28;;;1.83;;
18407;SDS011;9330;52.210;21.174;2023-05-10T13:47:26;1.58;;;1.42;;
18407;SDS011;9330;52.210;21.174;2023-05-10T13:49:53;4.40;;;1.95;;
18407;SDS011;9330;52.210;21.174;2023-05-10T13:52:21;2.13;;;1.75;;
18407;SDS011;9330;52.210;21.174;2023-05-10T13:54:48;4.75;;;1.60;;
18407;SDS011;9330;52.210;21.174;2023-05-10T13:57:18;3.50;;;1.90;;
18407;SDS011;9330;52.210;21.174;2023-05-10T13:59:45;2.83;;;1.70;;
18407;SDS011;9330;52.210;21.174;2023-05-10T14:02:12;2.03;;;1.63;;
18407;SDS011;9330;52.210;21.174;2023-05-10T14:04:42;3.67;;;1.70;;
18407;SDS011;9330;52.210;21.174;2023-05-10T14:07:08;2.58;;;1.63;;
18407;SDS011;9330;52.210;21.174;2023-05-10T14:09:35;2.85;;;1.63;;
18407;SDS011;9330;52.210;21.174;2023-05-10T14:12:02;3.67;;;1.38;;
18407;SDS011;9330;52.210;21.174;2023-05-10T14:14:30;2.13;;;1.48;;
18407;SDS011;9330;52.210;21.174;2023-05-10T14:16:57;2.53;;;1.85;;
18407;SDS011;9330;52.210;21.174;2023-05-10T14:19:24;6.82;;;2.05;;
18407;SDS011;9330;52.210;21.174;2023-05-10T14:21:52;4.38;;;1.67;;
18407;SDS011;9330;52.210;21.174;2023-05-10T14:24:19;4.60;;;1.90;;
18407;SDS011;9330;52.210;21.174;2023-05-10T14:26:46;2.35;;;1.52;;
18407;SDS011;9330;52.210;21.174;2023-05-10T14:29:13;3.33;;;1.70;;
18407;SDS011;9330;52.210;21.174;2023-05-10T14:31:42;2.75;;;1.52;;
18407;SDS011;9330;52.210;21.174;2023-05-10T14:34:08;5.05;;;2.00;;
18407;SDS011;9330;52.210;21.174;2023-05-10T14:36:35;2.80;;;1.55;;
18407;SDS011;9330;52.210;21.174;2023-05-10T14:39:02;2.33;;;1.70;;
18407;SDS011;9330;52.210;21.174;2023-05-10T14:41:29;1.95;;;1.50;;
18407;SDS011;9330;52.210;21.174;2023-05-10T14:43:56;2.80;;;1.80;;
18407;SDS011;9330;52.210;21.174;2023-05-10T14:46:23;3.33;;;1.77;;
18407;SDS011;9330;52.210;21.174;2023-05-10T14:48:52;2.05;;;1.70;;
18407;SDS011;9330;52.210;21.174;2023-05-10T14:51:19;1.90;;;1.50;;
18407;SDS011;9330;52.210;21.174;2023-05-10T14:53:47;3.38;;;1.50;;
18407;SDS011;9330;52.210;21.174;2023-05-10T14:56:14;5.43;;;1.67;;